createdAt,value
2022-09-18T00:01:12.324Z,96197.25
2022-09-18T00:03:40.424Z,96195.72
2022-09-18T00:06:10.314Z,96196.59
2022-09-18T00:08:39.619Z,96201.06
2022-09-18T00:11:10.006Z,96205.84
2022-09-18T00:13:39.345Z,96201.47
2022-09-18T00:16:09.711Z,96195.56
2022-09-18T00:18:39.519Z,96195.88
2022-09-18T00:21:09.922Z,96200.38
2022-09-18T00:23:38.879Z,96196.75
2022-09-18T00:26:07.997Z,96210.78
2022-09-18T00:28:36.980Z,96209.31
2022-09-18T00:31:06.674Z,96207.78
2022-09-18T00:33:35.838Z,96208.41
2022-09-18T00:36:07.895Z,96208.28
2022-09-18T00:38:36.441Z,96215.84
2022-09-18T00:41:07.071Z,96212.38
2022-09-18T00:43:36.010Z,96205.13
2022-09-18T00:46:06.225Z,96214.78
2022-09-18T00:48:51.362Z,96210.63
2022-09-18T00:51:21.371Z,96211.78
2022-09-18T00:53:53.505Z,96209.91
2022-09-18T00:56:21.784Z,96218.53
2022-09-18T00:58:50.834Z,96222.72
2022-09-18T01:01:19.137Z,96225.50
2022-09-18T01:03:47.492Z,96226.94
2022-09-18T01:06:17.898Z,96233.28
2022-09-18T01:08:57.220Z,96233.78
2022-09-18T01:11:32.222Z,96223.13
2022-09-18T01:14:23.574Z,96230.31
2022-09-18T01:16:57.518Z,96229.50
2022-09-18T01:19:38.447Z,96230.44
2022-09-18T01:22:17.669Z,96227.34
2022-09-18T01:25:00.031Z,96236.09
2022-09-18T01:27:32.054Z,96235.59
2022-09-18T01:30:04.828Z,96241.59
2022-09-18T01:32:36.977Z,96229.28
2022-09-18T01:35:18.687Z,96231.31
2022-09-18T01:38:02.650Z,96234.91
2022-09-18T01:40:34.382Z,96235.69
2022-09-18T01:43:05.257Z,96238.75
2022-09-18T01:45:36.995Z,96228.97
2022-09-18T01:48:08.005Z,96232.75
2022-09-18T01:50:40.145Z,96239.13
2022-09-18T01:53:12.320Z,96238.09
2022-09-18T01:55:42.279Z,96236.53
2022-09-18T01:58:13.966Z,96234.97
2022-09-18T02:00:45.881Z,96237.22
2022-09-18T02:03:16.325Z,96233.47
2022-09-18T02:05:47.654Z,96225.75
2022-09-18T02:08:20.196Z,96234.97
2022-09-18T02:10:51.772Z,96225.03
2022-09-18T02:13:23.676Z,96227.13
2022-09-18T02:15:58.437Z,96231.72
2022-09-18T02:18:29.689Z,96224.13
2022-09-18T02:20:58.612Z,96219.34
2022-09-18T02:23:28.316Z,96220.78
2022-09-18T02:25:58.991Z,96210.63
2022-09-18T02:28:27.618Z,96209.69
2022-09-18T02:30:58.483Z,96212.16
2022-09-18T02:33:28.321Z,96206.47
2022-09-18T02:36:28.765Z,96203.03
2022-09-18T02:39:08.251Z,96208.84
2022-09-18T02:41:45.086Z,96203.25
2022-09-18T02:44:17.789Z,96201.38
2022-09-18T02:46:55.467Z,96202.63
2022-09-18T02:49:34.829Z,96189.66
2022-09-18T02:52:06.474Z,96199.13
2022-09-18T02:54:41.928Z,96194.94
2022-09-18T02:57:12.064Z,96199.00
2022-09-18T02:59:43.143Z,96194.53
2022-09-18T03:02:13.403Z,96207.00
2022-09-18T03:04:41.844Z,96194.03
2022-09-18T03:07:10.184Z,96184.53
2022-09-18T03:09:38.625Z,96189.06
2022-09-18T03:12:07.189Z,96191.00
2022-09-18T03:14:35.691Z,96183.63
2022-09-18T03:17:04.490Z,96195.34
2022-09-18T03:19:34.213Z,96189.88
2022-09-18T03:22:02.717Z,96188.94
2022-09-18T03:24:31.235Z,96200.28
2022-09-18T03:26:59.643Z,96191.19
2022-09-18T03:29:28.001Z,96184.97
2022-09-18T03:31:56.504Z,96188.25
2022-09-18T03:34:24.866Z,96195.47
2022-09-18T03:36:54.599Z,96184.38
2022-09-18T03:39:22.942Z,96196.84
2022-09-18T03:41:51.301Z,96199.81
2022-09-18T03:44:19.578Z,96198.94
2022-09-18T03:46:47.961Z,96200.97
2022-09-18T03:49:16.295Z,96196.31
2022-09-18T03:51:44.639Z,96195.97
2022-09-18T03:54:14.951Z,96199.69
2022-09-18T03:56:43.229Z,96200.91
2022-09-18T03:59:11.530Z,96193.22
2022-09-18T04:01:39.813Z,96198.03
2022-09-18T04:04:08.301Z,96199.16
2022-09-18T04:06:36.935Z,96202.69
2022-09-18T04:09:05.463Z,96197.75
2022-09-18T04:11:35.162Z,96204.56
2022-09-18T04:14:03.642Z,96196.84
2022-09-18T04:16:32.053Z,96202.03
2022-09-18T04:19:00.749Z,96197.84
2022-09-18T04:21:29.065Z,96199.53
2022-09-18T04:23:57.699Z,96188.81
2022-09-18T04:26:26.438Z,96199.88
2022-09-18T04:28:56.210Z,96202.38
2022-09-18T04:31:24.578Z,96204.34
2022-09-18T04:33:52.864Z,96196.69
2022-09-18T04:36:21.140Z,96204.78
2022-09-18T04:38:49.437Z,96205.03
2022-09-18T04:41:17.772Z,96205.81
2022-09-18T04:43:46.104Z,96198.84
2022-09-18T04:46:15.986Z,96197.94
2022-09-18T04:48:48.578Z,96206.34
2022-09-18T04:51:17.040Z,96200.81
2022-09-18T04:53:45.365Z,96207.25
2022-09-18T04:56:13.762Z,96196.53
2022-09-18T04:58:42.027Z,96221.16
2022-09-18T05:01:10.495Z,96211.44
2022-09-18T05:03:40.209Z,96218.28
2022-09-18T05:06:08.702Z,96215.53
2022-09-18T05:08:37.306Z,96217.28
2022-09-18T05:11:05.991Z,96220.56
2022-09-18T05:13:34.319Z,96223.50
2022-09-18T05:16:03.159Z,96217.69
2022-09-18T05:18:31.494Z,96231.34
2022-09-18T05:21:04.039Z,96232.75
2022-09-18T05:23:33.316Z,96231.38
2022-09-18T05:26:01.973Z,96233.56
2022-09-18T05:28:30.275Z,96222.28
2022-09-18T05:31:00.698Z,96243.06
2022-09-18T05:33:29.514Z,96233.44
2022-09-18T05:35:58.815Z,96243.53
2022-09-18T05:38:28.598Z,96238.84
2022-09-18T05:41:00.759Z,96242.22
2022-09-18T05:43:29.661Z,96248.41
2022-09-18T05:45:58.393Z,96240.91
2022-09-18T05:48:26.726Z,96248.88
2022-09-18T05:50:55.162Z,96249.66
2022-09-18T05:53:23.619Z,96246.44
2022-09-18T05:55:53.249Z,96231.06
2022-09-18T05:58:22.126Z,96243.84
2022-09-18T06:00:52.073Z,96246.34
2022-09-18T06:03:20.466Z,96239.78
2022-09-18T06:05:53.374Z,96245.97
2022-09-18T06:08:22.695Z,96248.66
2022-09-18T06:10:52.036Z,96257.72
2022-09-18T06:13:21.722Z,96254.19
2022-09-18T06:15:52.275Z,96259.91
2022-09-18T06:18:20.813Z,96261.44
2022-09-18T06:20:53.753Z,96266.38
2022-09-18T06:23:23.030Z,96266.94
2022-09-18T06:25:58.203Z,96259.31
2022-09-18T06:28:28.594Z,96255.41
2022-09-18T06:30:56.909Z,96257.06
2022-09-18T06:33:25.448Z,96247.81
2022-09-18T06:35:53.752Z,96242.38
2022-09-18T06:38:22.072Z,96242.84
2022-09-18T06:40:50.974Z,96239.91
2022-09-18T06:43:19.706Z,96246.09
2022-09-18T06:45:53.595Z,96253.06
2022-09-18T06:48:23.141Z,96257.00
2022-09-18T06:50:54.864Z,96266.38
2022-09-18T06:53:23.692Z,96261.25
2022-09-18T06:55:52.092Z,96265.38
2022-09-18T06:58:21.136Z,96259.44
2022-09-18T07:00:49.505Z,96259.69
2022-09-18T07:03:19.258Z,96253.50
2022-09-18T07:05:47.624Z,96260.78
2022-09-18T07:08:16.126Z,96252.19
2022-09-18T07:10:44.540Z,96265.91
2022-09-18T07:13:12.862Z,96272.16
2022-09-18T07:15:41.216Z,96265.41
2022-09-18T07:18:09.616Z,96250.19
2022-09-18T07:20:39.263Z,96263.44
2022-09-18T07:23:07.570Z,96264.22
2022-09-18T07:25:35.912Z,96279.50
2022-09-18T07:28:07.750Z,96272.06
2022-09-18T07:30:36.241Z,96273.72
2022-09-18T07:33:05.494Z,96279.22
2022-09-18T07:35:34.138Z,96282.09
2022-09-18T07:38:05.967Z,96285.81
2022-09-18T07:40:34.753Z,96278.03
2022-09-18T07:43:05.661Z,96280.13
2022-09-18T07:45:34.296Z,96274.84
2022-09-18T07:48:03.141Z,96277.25
2022-09-18T07:50:31.471Z,96288.22
2022-09-18T07:53:02.188Z,96287.50
2022-09-18T07:55:32.401Z,96286.97
2022-09-18T07:58:02.388Z,96293.94
2022-09-18T08:00:33.323Z,96279.59
2022-09-18T08:03:05.783Z,96285.22
2022-09-18T08:05:34.344Z,96292.38
2022-09-18T08:08:05.854Z,96292.91
2022-09-18T08:10:36.943Z,96294.13
2022-09-18T08:13:05.396Z,96297.63
2022-09-18T08:15:34.786Z,96299.03
2022-09-18T08:18:03.071Z,96298.69
2022-09-18T08:20:31.906Z,96293.19
2022-09-18T08:23:00.184Z,96295.69
2022-09-18T08:25:28.534Z,96297.28
2022-09-18T08:28:01.687Z,96294.91
2022-09-18T08:30:30.730Z,96291.00
2022-09-18T08:33:00.153Z,96298.72
2022-09-18T08:35:28.971Z,96288.00
2022-09-18T08:37:58.057Z,96295.00
2022-09-18T08:40:37.894Z,96283.06
2022-09-18T08:43:13.423Z,96293.34
2022-09-18T08:45:52.907Z,96297.38
2022-09-18T08:48:23.318Z,96292.88
2022-09-18T08:50:56.326Z,96290.69
2022-09-18T08:53:28.186Z,96295.06
2022-09-18T08:55:57.405Z,96294.84
2022-09-18T08:58:31.841Z,96278.34
2022-09-18T09:01:03.034Z,96287.50
2022-09-18T09:03:35.891Z,96294.34
2022-09-18T09:06:10.340Z,96282.56
2022-09-18T09:09:00.381Z,96290.19
2022-09-18T09:11:35.156Z,96283.47
2022-09-18T09:14:34.210Z,96281.53
2022-09-18T09:17:18.474Z,96285.69
2022-09-18T09:19:54.228Z,96281.28
2022-09-18T09:22:29.958Z,96294.47
2022-09-18T09:25:06.564Z,96292.91
2022-09-18T09:27:38.343Z,96283.59
2022-09-18T09:30:15.709Z,96286.75
2022-09-18T09:32:46.459Z,96289.78
2022-09-18T09:35:25.043Z,96291.50
2022-09-18T09:37:53.886Z,96280.03
2022-09-18T09:40:32.375Z,96288.88
2022-09-18T09:43:04.814Z,96286.94
2022-09-18T09:45:42.401Z,96289.78
2022-09-18T09:48:15.788Z,96286.84
2022-09-18T09:50:49.822Z,96285.53
2022-09-18T09:53:18.238Z,96287.34
2022-09-18T09:55:54.156Z,96283.50
2022-09-18T09:58:33.837Z,96285.53
2022-09-18T10:01:08.216Z,96284.25
2022-09-18T10:03:43.912Z,96281.44
2022-09-18T10:06:21.501Z,96283.53
2022-09-18T10:08:52.916Z,96282.09
2022-09-18T10:11:21.580Z,96279.06
2022-09-18T10:13:52.056Z,96276.34
2022-09-18T10:16:24.982Z,96294.03
2022-09-18T10:18:53.387Z,96275.69
2022-09-18T10:21:23.292Z,96285.44
2022-09-18T10:23:55.885Z,96285.75
2022-09-18T10:26:27.341Z,96289.66
2022-09-18T10:28:55.679Z,96297.56
2022-09-18T10:31:48.525Z,96282.19
2022-09-18T10:34:35.874Z,96287.31
2022-09-18T10:37:05.789Z,96285.31
2022-09-18T10:39:36.433Z,96285.44
2022-09-18T10:42:06.174Z,96279.91
2022-09-18T10:44:36.388Z,96290.41
2022-09-18T10:47:08.447Z,96277.97
2022-09-18T10:49:40.827Z,96281.16
2022-09-18T10:52:28.510Z,96287.41
2022-09-18T10:54:59.665Z,96289.50
2022-09-18T10:57:32.541Z,96293.84
2022-09-18T11:00:01.295Z,96281.59
2022-09-18T11:02:41.563Z,96283.19
2022-09-18T11:05:17.061Z,96266.88
2022-09-18T11:07:48.797Z,96272.13
2022-09-18T11:10:17.828Z,96288.09
2022-09-18T11:12:53.497Z,96278.56
2022-09-18T11:15:26.860Z,96279.06
2022-09-18T11:17:58.581Z,96272.25
2022-09-18T11:20:30.035Z,96274.88
2022-09-18T11:23:16.105Z,96272.75
2022-09-18T11:25:45.831Z,96286.66
2022-09-18T11:28:23.556Z,96256.22
2022-09-18T11:30:59.258Z,96273.84
2022-09-18T11:33:30.913Z,96267.63
2022-09-18T11:36:01.950Z,96264.72
2022-09-18T11:38:30.298Z,96261.81
2022-09-18T11:40:59.814Z,96264.41
2022-09-18T11:43:30.792Z,96258.03
2022-09-18T11:46:05.353Z,96257.91
2022-09-18T11:48:38.676Z,96262.84
2022-09-18T11:51:12.729Z,96252.66
2022-09-18T11:53:43.919Z,96251.97
2022-09-18T11:56:15.458Z,96244.94
2022-09-18T11:58:46.909Z,96249.41
2022-09-18T12:01:25.061Z,96256.22
2022-09-18T12:03:57.370Z,96246.22
2022-09-18T12:06:30.403Z,96255.59
2022-09-18T12:09:02.315Z,96245.09
2022-09-18T12:11:37.532Z,96250.59
2022-09-18T12:14:12.864Z,96248.94
2022-09-18T12:16:45.959Z,96238.78
2022-09-18T12:19:20.096Z,96230.91
2022-09-18T12:21:54.158Z,96236.13
2022-09-18T12:24:22.707Z,96240.19
2022-09-18T12:26:59.003Z,96253.75
2022-09-18T12:29:37.261Z,96243.03
2022-09-18T12:32:15.843Z,96226.97
2022-09-18T12:34:49.761Z,96237.59
2022-09-18T12:37:31.558Z,96241.53
2022-09-18T12:40:13.131Z,96243.78
2022-09-18T12:42:48.130Z,96246.50
2022-09-18T12:45:59.731Z,96254.09
2022-09-18T12:48:41.894Z,96238.88
2022-09-18T12:51:21.907Z,96234.47
2022-09-18T12:53:56.522Z,96226.16
2022-09-18T12:56:36.106Z,96221.66
2022-09-18T12:59:22.621Z,96217.47
2022-09-18T13:01:53.670Z,96219.34
2022-09-18T13:04:27.445Z,96228.53
2022-09-18T13:06:59.611Z,96211.41
2022-09-18T13:09:31.334Z,96219.59
2022-09-18T13:12:02.644Z,96216.31
2022-09-18T13:14:36.995Z,96212.81
2022-09-18T13:17:09.432Z,96210.78
2022-09-18T13:19:41.131Z,96206.22
2022-09-18T13:22:16.262Z,96196.41
2022-09-18T13:24:47.120Z,96201.88
2022-09-18T13:27:19.776Z,96197.47
2022-09-18T13:29:50.026Z,96213.06
2022-09-18T13:32:20.335Z,96209.94
2022-09-18T13:34:51.650Z,96191.84
2022-09-18T13:37:23.386Z,96214.28
2022-09-18T13:40:09.220Z,96192.25
2022-09-18T13:42:40.831Z,96189.88
2022-09-18T13:45:25.921Z,96171.97
2022-09-18T13:48:05.685Z,96180.81
2022-09-18T13:50:35.557Z,96177.31
2022-09-18T13:53:06.196Z,96180.75
2022-09-18T13:55:49.022Z,96189.78
2022-09-18T13:58:36.987Z,96176.34
2022-09-18T14:01:07.211Z,96170.09
2022-09-18T14:03:38.867Z,96170.59
2022-09-18T14:06:52.647Z,96162.75
2022-09-18T14:09:50.353Z,96152.56
2022-09-18T14:12:19.481Z,96164.69
2022-09-18T14:14:58.769Z,96152.72
2022-09-18T14:17:27.253Z,96161.63
2022-09-18T14:19:59.590Z,96173.53
2022-09-18T14:22:32.070Z,96164.06
2022-09-18T14:25:03.485Z,96165.28
2022-09-18T14:27:57.030Z,96165.94
2022-09-18T14:30:26.873Z,96163.06
2022-09-18T14:33:03.109Z,96148.63
2022-09-18T14:35:37.050Z,96152.56
2022-09-18T14:38:17.608Z,96142.91
2022-09-18T14:40:50.804Z,96132.50
2022-09-18T14:43:22.127Z,96136.31
2022-09-18T14:45:51.572Z,96143.31
2022-09-18T14:48:28.972Z,96128.25
2022-09-18T14:51:02.862Z,96127.50
2022-09-18T14:53:31.793Z,96128.84
2022-09-18T14:56:04.341Z,96127.66
2022-09-18T14:58:35.980Z,96121.06
2022-09-18T15:01:05.482Z,96115.94
2022-09-18T15:03:37.417Z,96130.38
2022-09-18T15:06:11.631Z,96126.44
2022-09-18T15:08:40.061Z,96121.53
2022-09-18T15:11:14.871Z,96112.44
2022-09-18T15:13:43.797Z,96122.34
2022-09-18T15:16:20.032Z,96114.66
2022-09-18T15:18:50.455Z,96117.97
2022-09-18T15:21:23.020Z,96132.72
2022-09-18T15:23:51.778Z,96114.53
2022-09-18T15:26:24.911Z,96110.84
2022-09-18T15:28:54.608Z,96134.88
2022-09-18T15:31:24.150Z,96122.47
2022-09-18T15:33:55.716Z,96120.28
2022-09-18T15:36:27.573Z,96115.50
2022-09-18T15:38:57.256Z,96112.06
2022-09-18T15:41:35.897Z,96126.47
2022-09-18T15:44:04.831Z,96115.34
2022-09-18T15:46:34.733Z,96124.81
2022-09-18T15:49:04.423Z,96125.88
2022-09-18T15:51:34.683Z,96127.50
2022-09-18T15:54:05.679Z,96113.63
2022-09-18T15:56:35.849Z,96104.22
2022-09-18T15:59:05.657Z,96107.69
2022-09-18T16:01:36.163Z,96100.44
2022-09-18T16:04:09.206Z,96099.72
2022-09-18T16:06:45.286Z,96093.94
2022-09-18T16:09:25.073Z,96100.38
2022-09-18T16:11:54.791Z,96094.28
2022-09-18T16:14:45.544Z,96096.31
2022-09-18T16:17:36.080Z,96100.50
2022-09-18T16:20:28.216Z,96102.59
2022-09-18T16:22:59.881Z,96094.09
2022-09-18T16:25:30.084Z,96093.94
2022-09-18T16:28:00.654Z,96095.44
2022-09-18T16:30:29.860Z,96093.28
2022-09-18T16:33:03.332Z,96094.63
2022-09-18T16:35:31.718Z,96095.75
2022-09-18T16:37:59.969Z,96099.38
2022-09-18T16:40:31.295Z,96090.78
2022-09-18T16:43:01.046Z,96094.09
2022-09-18T16:45:29.455Z,96086.16
2022-09-18T16:48:00.662Z,96097.22
2022-09-18T16:50:29.262Z,96093.09
2022-09-18T16:53:01.397Z,96087.56
2022-09-18T16:55:31.449Z,96085.28
2022-09-18T16:58:01.105Z,96086.09
2022-09-18T17:00:29.490Z,96088.91
2022-09-18T17:02:57.896Z,96081.78
2022-09-18T17:05:26.274Z,96088.06
2022-09-18T17:07:54.641Z,96089.75
2022-09-18T17:10:23.034Z,96091.88
2022-09-18T17:12:51.344Z,96079.84
2022-09-18T17:15:21.306Z,96088.41
2022-09-18T17:17:49.815Z,96096.03
2022-09-18T17:20:18.899Z,96079.75
2022-09-18T17:22:47.787Z,96090.38
2022-09-18T17:25:16.546Z,96083.97
2022-09-18T17:27:45.031Z,96094.97
2022-09-18T17:30:13.643Z,96085.44
2022-09-18T17:32:43.502Z,96089.22
2022-09-18T17:35:13.385Z,96088.78
2022-09-18T17:37:41.755Z,96084.88
2022-09-18T17:40:10.722Z,96093.81
2022-09-18T17:42:39.218Z,96090.69
2022-09-18T17:45:08.440Z,96091.00
2022-09-18T17:47:36.959Z,96092.69
2022-09-18T17:50:08.865Z,96095.50
2022-09-18T17:52:37.388Z,96093.16
2022-09-18T17:55:06.520Z,96090.50
2022-09-18T17:57:36.936Z,96084.53
2022-09-18T18:00:06.426Z,96087.84
2022-09-18T18:02:34.747Z,96093.81
2022-09-18T18:05:03.808Z,96089.03
2022-09-18T18:07:33.496Z,96093.56
2022-09-18T18:10:02.030Z,96100.66
2022-09-18T18:12:30.315Z,96096.06
2022-09-18T18:14:58.694Z,96098.03
2022-09-18T18:17:27.015Z,96100.28
2022-09-18T18:19:55.622Z,96097.47
2022-09-18T18:22:23.963Z,96097.78
2022-09-18T18:24:53.646Z,96103.78
2022-09-18T18:27:22.391Z,96101.22
2022-09-18T18:29:53.612Z,96105.56
2022-09-18T18:32:22.929Z,96100.72
2022-09-18T18:34:51.259Z,96100.94
2022-09-18T18:37:20.512Z,96099.63
2022-09-18T18:39:49.104Z,96100.94
2022-09-18T18:42:19.805Z,96100.88
2022-09-18T18:44:48.028Z,96099.34
2022-09-18T18:47:17.563Z,96099.13
2022-09-18T18:49:45.842Z,96098.69
2022-09-18T18:52:14.206Z,96104.25
2022-09-18T18:54:42.565Z,96103.03
2022-09-18T18:57:11.678Z,96103.00
2022-09-18T18:59:42.133Z,96101.56
2022-09-18T19:02:11.378Z,96099.03
2022-09-18T19:04:41.462Z,96097.69
2022-09-18T19:07:10.805Z,96100.56
2022-09-18T19:09:39.128Z,96096.41
2022-09-18T19:12:07.729Z,96091.59
2022-09-18T19:14:38.043Z,96096.72
2022-09-18T19:17:09.938Z,96093.50
2022-09-18T19:19:38.457Z,96088.50
2022-09-18T19:22:16.569Z,96087.84
2022-09-18T19:24:45.117Z,96085.06
2022-09-18T19:27:13.473Z,96093.06
2022-09-18T19:29:42.348Z,96097.63
2022-09-18T19:32:11.975Z,96093.31
2022-09-18T19:34:40.267Z,96092.31
2022-09-18T19:37:11.816Z,96090.78
2022-09-18T19:39:41.434Z,96090.53
2022-09-18T19:42:12.367Z,96092.06
2022-09-18T19:44:43.108Z,96085.19
2022-09-18T19:47:19.717Z,96088.69
2022-09-18T19:49:49.131Z,96081.81
2022-09-18T19:52:19.076Z,96081.09
2022-09-18T19:54:47.843Z,96078.97
2022-09-18T19:57:16.356Z,96082.91
2022-09-18T19:59:45.059Z,96075.41
2022-09-18T20:02:17.280Z,96077.03
2022-09-18T20:04:45.626Z,96076.25
2022-09-18T20:07:14.573Z,96080.13
2022-09-18T20:09:42.927Z,96064.72
2022-09-18T20:12:11.578Z,96062.13
2022-09-18T20:14:39.853Z,96059.19
2022-09-18T20:17:08.304Z,96062.38
2022-09-18T20:19:38.112Z,96068.31
2022-09-18T20:22:06.567Z,96062.81
2022-09-18T20:24:35.030Z,96041.41
2022-09-18T20:27:03.388Z,96038.06
2022-09-18T20:29:31.694Z,96037.50
2022-09-18T20:31:59.950Z,96042.25
2022-09-18T20:34:28.272Z,96044.38
2022-09-18T20:36:58.787Z,96046.50
2022-09-18T20:39:27.189Z,96041.16
2022-09-18T20:41:57.338Z,96032.66
2022-09-18T20:44:25.839Z,96035.59
2022-09-18T20:46:56.688Z,96031.81
2022-09-18T20:49:25.497Z,96028.56
2022-09-18T20:51:54.458Z,96025.53
2022-09-18T20:54:24.398Z,96011.97
2022-09-18T20:56:52.917Z,96023.38
2022-09-18T20:59:21.382Z,96025.19
2022-09-18T21:01:50.036Z,96020.31
2022-09-18T21:04:20.264Z,96032.28
2022-09-18T21:06:56.089Z,96019.75
2022-09-18T21:09:27.753Z,96029.16
2022-09-18T21:11:57.339Z,96030.25
2022-09-18T21:14:27.361Z,96009.13
2022-09-18T21:16:55.986Z,96021.06
2022-09-18T21:19:26.147Z,96013.28
2022-09-18T21:21:55.010Z,96017.75
2022-09-18T21:24:23.528Z,96020.53
2022-09-18T21:26:53.264Z,96023.00
2022-09-18T21:29:23.302Z,96023.00
2022-09-18T21:31:54.281Z,96012.44
2022-09-18T21:34:24.742Z,96013.22
2022-09-18T21:36:56.441Z,96000.53
2022-09-18T21:39:25.893Z,96009.50
2022-09-18T21:41:56.275Z,96011.78
2022-09-18T21:44:27.198Z,96009.00
2022-09-18T21:46:57.170Z,96004.19
2022-09-18T21:49:26.251Z,96003.06
2022-09-18T21:51:55.771Z,96004.91
2022-09-18T21:54:25.051Z,96003.09
2022-09-18T21:56:55.356Z,96004.19
2022-09-18T21:59:25.813Z,95991.81
2022-09-18T22:01:55.416Z,95988.94
2022-09-18T22:04:26.170Z,95994.25
2022-09-18T22:06:57.130Z,95993.31
2022-09-18T22:09:27.273Z,95988.03
2022-09-18T22:11:57.756Z,95993.53
2022-09-18T22:14:28.663Z,95977.66
2022-09-18T22:16:57.036Z,95989.34
2022-09-18T22:19:26.008Z,95996.88
2022-09-18T22:21:54.408Z,95992.94
2022-09-18T22:24:24.726Z,96003.41
2022-09-18T22:26:55.741Z,96000.56
2022-09-18T22:29:27.067Z,96006.22
2022-09-18T22:31:55.549Z,96010.09
2022-09-18T22:34:26.407Z,95998.50
2022-09-18T22:36:55.751Z,95996.19
2022-09-18T22:39:24.112Z,96000.44
2022-09-18T22:41:52.776Z,96003.41
2022-09-18T22:44:21.917Z,96005.13
2022-09-18T22:46:53.090Z,96005.38
2022-09-18T22:49:22.652Z,96001.06
2022-09-18T22:51:51.577Z,96001.13
2022-09-18T22:54:23.794Z,96007.88
2022-09-18T22:56:52.811Z,96004.69
2022-09-18T22:59:22.516Z,96013.84
2022-09-18T23:01:54.211Z,96011.91
2022-09-18T23:04:23.661Z,96008.59
2022-09-18T23:06:52.345Z,96016.94
2022-09-18T23:09:20.872Z,96022.28
2022-09-18T23:11:50.573Z,96031.97
2022-09-18T23:14:20.480Z,96020.44
2022-09-18T23:16:50.021Z,96031.91
2022-09-18T23:19:22.470Z,96026.72
2022-09-18T23:21:51.640Z,96032.66
2022-09-18T23:24:20.154Z,96032.22
2022-09-18T23:26:49.830Z,96032.81
2022-09-18T23:29:21.358Z,96031.34
2022-09-18T23:31:52.920Z,96034.22
2022-09-18T23:34:24.688Z,96036.25
2022-09-18T23:36:54.178Z,96040.53
2022-09-18T23:39:24.391Z,96035.78
2022-09-18T23:41:52.963Z,96043.34
2022-09-18T23:44:23.179Z,96046.34
2022-09-18T23:46:51.703Z,96032.56
2022-09-18T23:49:23.817Z,96042.34
2022-09-18T23:51:54.798Z,96028.22
2022-09-18T23:54:24.502Z,96039.88
2022-09-18T23:56:53.409Z,96050.56
2022-09-18T23:59:23.430Z,96035.31
